createdAt,value
2023-01-11T00:00:37.220Z,99133.97
2023-01-11T00:03:05.307Z,99119.53
2023-01-11T00:05:31.733Z,99122.44
2023-01-11T00:07:58.136Z,99125.66
2023-01-11T00:10:24.593Z,99114.03
2023-01-11T00:12:50.930Z,99099.91
2023-01-11T00:15:17.420Z,99107.53
2023-01-11T00:17:43.697Z,99110.22
2023-01-11T00:20:10.565Z,99109.34
2023-01-11T00:22:37.242Z,99097.38
2023-01-11T00:25:04.237Z,99104.00
2023-01-11T00:27:30.895Z,99107.00
2023-01-11T00:29:57.317Z,99111.44
2023-01-11T00:32:23.912Z,99094.44
2023-01-11T00:34:52.310Z,99086.16
2023-01-11T00:37:18.716Z,99097.16
2023-01-11T00:39:45.021Z,99092.63
2023-01-11T00:42:12.056Z,99083.69
2023-01-11T00:44:38.370Z,99084.78
2023-01-11T00:47:04.900Z,99078.94
2023-01-11T00:49:31.737Z,99070.94
2023-01-11T00:51:59.358Z,99091.94
2023-01-11T00:54:25.674Z,99073.56
2023-01-11T00:56:52.175Z,99068.41
2023-01-11T00:59:18.578Z,99070.88
2023-01-11T01:01:45.006Z,99070.44
2023-01-11T01:04:11.523Z,99066.81
2023-01-11T01:06:38.070Z,99074.69
2023-01-11T01:09:04.654Z,99072.63
2023-01-11T01:11:31.226Z,99059.09
2023-01-11T01:13:57.561Z,99057.88
2023-01-11T01:16:24.049Z,99044.13
2023-01-11T01:18:50.416Z,99059.09
2023-01-11T01:21:16.970Z,99041.34
2023-01-11T01:23:43.271Z,99056.69
2023-01-11T01:26:09.633Z,99057.63
2023-01-11T01:28:36.065Z,99040.88
2023-01-11T01:31:02.757Z,99051.75
2023-01-11T01:33:30.286Z,99045.13
2023-01-11T01:35:56.688Z,99036.22
2023-01-11T01:38:23.015Z,99045.44
2023-01-11T01:40:49.356Z,99028.31
2023-01-11T01:43:17.505Z,99037.63
2023-01-11T01:45:43.933Z,99036.31
2023-01-11T01:48:14.678Z,99033.69
2023-01-11T01:51:01.349Z,99037.63
2023-01-11T01:53:31.672Z,99030.78
2023-01-11T01:56:01.621Z,99032.78
2023-01-11T01:58:34.708Z,99032.38
2023-01-11T02:01:01.134Z,99028.31
2023-01-11T02:03:28.022Z,99028.22
2023-01-11T02:05:54.719Z,99023.31
2023-01-11T02:08:29.306Z,99029.03
2023-01-11T02:10:55.925Z,99028.88
2023-01-11T02:13:22.529Z,99021.41
2023-01-11T02:15:50.061Z,99030.03
2023-01-11T02:18:16.418Z,99008.59
2023-01-11T02:21:06.402Z,99006.31
2023-01-11T02:24:08.456Z,99018.78
2023-01-11T02:27:05.774Z,99001.66
2023-01-11T02:29:53.234Z,99007.97
2023-01-11T02:32:45.389Z,99008.94
2023-01-11T02:35:36.866Z,99016.66
2023-01-11T02:38:27.542Z,99001.97
2023-01-11T02:41:16.349Z,99005.78
2023-01-11T02:43:57.454Z,99003.94
2023-01-11T02:46:38.437Z,98989.22
2023-01-11T02:49:26.670Z,98987.25
2023-01-11T02:51:57.641Z,98986.44
2023-01-11T02:54:24.299Z,98980.59
2023-01-11T02:56:56.246Z,98973.72
2023-01-11T02:59:28.126Z,98963.84
2023-01-11T03:01:54.904Z,98970.47
2023-01-11T03:04:28.899Z,98969.28
2023-01-11T03:07:21.528Z,98963.25
2023-01-11T03:10:15.973Z,98949.56
2023-01-11T03:13:03.732Z,98948.13
2023-01-11T03:15:45.629Z,98956.47
2023-01-11T03:18:40.852Z,98956.56
2023-01-11T03:21:27.825Z,98956.25
2023-01-11T03:24:16.523Z,98953.63
2023-01-11T03:26:59.069Z,98957.94
2023-01-11T03:29:49.647Z,98959.22
2023-01-11T03:32:24.769Z,98955.31
2023-01-11T03:35:09.295Z,98970.09
2023-01-11T03:38:01.280Z,98960.22
2023-01-11T03:40:37.888Z,98967.09
2023-01-11T03:43:11.613Z,98958.19
2023-01-11T03:45:58.749Z,98944.09
2023-01-11T03:48:36.423Z,98932.53
2023-01-11T03:51:05.218Z,98938.84
2023-01-11T03:53:35.395Z,98927.56
2023-01-11T03:56:05.875Z,98927.63
2023-01-11T03:58:32.540Z,98934.66
2023-01-11T04:00:59.651Z,98935.47
2023-01-11T04:03:27.213Z,98928.31
2023-01-11T04:05:58.523Z,98909.50
2023-01-11T04:08:25.366Z,98907.81
2023-01-11T04:10:52.025Z,98909.91
2023-01-11T04:13:18.458Z,98902.66
2023-01-11T04:15:44.927Z,98899.34
2023-01-11T04:18:11.647Z,98908.41
2023-01-11T04:20:40.438Z,98922.56
2023-01-11T04:23:08.338Z,98914.63
2023-01-11T04:25:34.778Z,98895.38
2023-01-11T04:28:01.327Z,98892.63
2023-01-11T04:30:27.805Z,98877.41
2023-01-11T04:32:54.118Z,98884.13
2023-01-11T04:35:20.442Z,98875.81
2023-01-11T04:37:46.812Z,98889.31
2023-01-11T04:40:13.331Z,98889.50
2023-01-11T04:42:39.956Z,98900.66
2023-01-11T04:45:06.712Z,98889.50
2023-01-11T04:47:33.143Z,98865.88
2023-01-11T04:49:59.713Z,98857.88
2023-01-11T04:52:26.236Z,98862.59
2023-01-11T04:54:52.575Z,98872.53
2023-01-11T04:57:19.115Z,98877.28
2023-01-11T04:59:45.530Z,98897.94
2023-01-11T05:02:12.030Z,98885.88
2023-01-11T05:04:38.889Z,98875.25
2023-01-11T05:07:07.067Z,98867.31
2023-01-11T05:09:33.479Z,98864.97
2023-01-11T05:11:59.904Z,98854.50
2023-01-11T05:14:26.206Z,98846.56
2023-01-11T05:16:52.796Z,98853.63
2023-01-11T05:19:19.199Z,98849.56
2023-01-11T05:21:45.657Z,98844.75
2023-01-11T05:24:14.460Z,98844.03
2023-01-11T05:26:42.354Z,98839.25
2023-01-11T05:29:11.950Z,98828.50
2023-01-11T05:31:40.019Z,98824.63
2023-01-11T05:34:07.673Z,98823.53
2023-01-11T05:36:35.291Z,98823.91
2023-01-11T05:39:02.597Z,98838.81
2023-01-11T05:41:29.007Z,98824.19
2023-01-11T05:43:55.864Z,98831.19
2023-01-11T05:46:22.620Z,98820.00
2023-01-11T05:48:49.544Z,98821.66
2023-01-11T05:51:16.278Z,98823.16
2023-01-11T05:53:43.600Z,98816.72
2023-01-11T05:56:10.026Z,98816.16
2023-01-11T05:58:36.557Z,98820.81
2023-01-11T06:01:03.274Z,98813.16
2023-01-11T06:03:29.692Z,98814.19
2023-01-11T06:05:58.184Z,98824.13
2023-01-11T06:08:24.624Z,98820.00
2023-01-11T06:10:55.813Z,98813.47
2023-01-11T06:13:23.936Z,98820.09
2023-01-11T06:15:50.454Z,98818.53
2023-01-11T06:18:17.059Z,98812.41
2023-01-11T06:20:43.549Z,98806.44
2023-01-11T06:23:09.888Z,98803.78
2023-01-11T06:25:36.325Z,98817.47
2023-01-11T06:28:05.456Z,98797.91
2023-01-11T06:30:32.021Z,98803.44
2023-01-11T06:33:01.867Z,98808.94
2023-01-11T06:35:28.271Z,98803.44
2023-01-11T06:37:54.749Z,98807.25
2023-01-11T06:40:21.170Z,98784.44
2023-01-11T06:42:47.541Z,98812.13
2023-01-11T06:45:13.897Z,98795.88
2023-01-11T06:47:40.265Z,98793.50
2023-01-11T06:50:07.410Z,98787.50
2023-01-11T06:52:33.763Z,98791.94
2023-01-11T06:55:00.183Z,98793.44
2023-01-11T06:57:26.594Z,98786.75
2023-01-11T06:59:52.963Z,98789.94
2023-01-11T07:02:22.572Z,98793.81
2023-01-11T07:04:49.069Z,98796.44
2023-01-11T07:07:15.507Z,98797.06
2023-01-11T07:09:42.338Z,98809.63
2023-01-11T07:12:08.738Z,98811.28
2023-01-11T07:14:35.168Z,98799.13
2023-01-11T07:17:01.600Z,98805.72
2023-01-11T07:19:28.116Z,98813.78
2023-01-11T07:21:54.430Z,98812.41
2023-01-11T07:24:20.766Z,98785.66
2023-01-11T07:26:47.383Z,98810.31
2023-01-11T07:29:13.756Z,98810.94
2023-01-11T07:31:40.174Z,98815.78
2023-01-11T07:34:06.838Z,98799.97
2023-01-11T07:36:33.165Z,98802.69
2023-01-11T07:38:59.489Z,98801.81
2023-01-11T07:41:26.109Z,98793.88
2023-01-11T07:43:53.227Z,98798.94
2023-01-11T07:46:19.655Z,98807.00
2023-01-11T07:48:46.043Z,98799.50
2023-01-11T07:51:12.454Z,98802.13
2023-01-11T07:53:38.906Z,98787.63
2023-01-11T07:56:05.419Z,98790.91
2023-01-11T07:58:32.405Z,98813.81
2023-01-11T08:00:59.598Z,98809.31
2023-01-11T08:03:26.007Z,98800.72
2023-01-11T08:05:53.398Z,98793.41
2023-01-11T08:08:20.203Z,98797.25
2023-01-11T08:10:46.555Z,98785.94
2023-01-11T08:13:13.983Z,98785.47
2023-01-11T08:15:40.513Z,98774.81
2023-01-11T08:18:06.848Z,98789.81
2023-01-11T08:20:33.583Z,98784.06
2023-01-11T08:23:08.085Z,98791.94
2023-01-11T08:25:34.501Z,98785.38
2023-01-11T08:28:02.718Z,98790.31
2023-01-11T08:30:29.825Z,98798.91
2023-01-11T08:32:56.445Z,98793.97
2023-01-11T08:35:24.401Z,98799.97
2023-01-11T08:37:51.166Z,98799.75
2023-01-11T08:40:17.505Z,98793.59
2023-01-11T08:42:43.845Z,98769.19
2023-01-11T08:45:10.473Z,98785.81
2023-01-11T08:47:36.767Z,98775.63
2023-01-11T08:50:04.397Z,98804.75
2023-01-11T08:52:30.855Z,98775.44
2023-01-11T08:54:57.173Z,98780.31
2023-01-11T08:57:23.471Z,98784.91
2023-01-11T08:59:49.996Z,98786.69
2023-01-11T09:02:16.447Z,98786.78
2023-01-11T09:04:42.907Z,98793.25
2023-01-11T09:07:09.226Z,98800.91
2023-01-11T09:09:35.872Z,98789.81
2023-01-11T09:12:04.806Z,98787.34
2023-01-11T09:14:32.092Z,98793.28
2023-01-11T09:16:58.452Z,98784.22
2023-01-11T09:19:25.595Z,98782.75
2023-01-11T09:21:52.266Z,98797.53
2023-01-11T09:24:18.984Z,98786.53
2023-01-11T09:26:45.431Z,98789.50
2023-01-11T09:29:12.206Z,98804.28
2023-01-11T09:31:38.694Z,98799.69
2023-01-11T09:34:05.246Z,98801.19
2023-01-11T09:36:31.627Z,98795.38
2023-01-11T09:38:59.540Z,98782.81
2023-01-11T09:41:50.632Z,98796.16
2023-01-11T09:44:21.581Z,98787.88
2023-01-11T09:46:52.584Z,98790.72
2023-01-11T09:49:25.078Z,98801.00
2023-01-11T09:51:52.216Z,98788.25
2023-01-11T09:54:25.882Z,98790.84
2023-01-11T09:57:21.585Z,98796.72
2023-01-11T09:59:53.084Z,98783.28
2023-01-11T10:02:52.546Z,98779.16
2023-01-11T10:05:36.468Z,98784.97
2023-01-11T10:18:30.184Z,98774.13
2023-01-11T10:18:31.924Z,98786.72
2023-01-11T10:20:52.882Z,98778.78
2023-01-11T10:23:26.827Z,98784.16
2023-01-11T10:25:56.002Z,98782.00
2023-01-11T10:28:37.847Z,98769.06
2023-01-11T10:31:12.608Z,98769.59
2023-01-11T10:33:48.521Z,98775.47
2023-01-11T10:36:27.623Z,98773.50
2023-01-11T10:39:15.465Z,98772.50
2023-01-11T10:41:53.177Z,98777.78
2023-01-11T10:44:27.044Z,98773.41
2023-01-11T10:46:54.455Z,98772.94
2023-01-11T10:49:54.320Z,98772.09
2023-01-11T10:52:41.987Z,98777.44
2023-01-11T10:55:13.111Z,98773.41
2023-01-11T10:58:13.402Z,98769.59
2023-01-11T11:01:16.153Z,98776.22
2023-01-11T11:04:00.711Z,98772.63
2023-01-11T11:06:41.955Z,98774.44
2023-01-11T11:09:50.994Z,98773.88
2023-01-11T11:12:24.365Z,98765.75
2023-01-11T11:15:32.884Z,98773.66
2023-01-11T11:17:59.701Z,98757.00
2023-01-11T11:20:32.820Z,98760.19
2023-01-11T11:23:00.305Z,98772.03
2023-01-11T11:25:37.342Z,98764.06
2023-01-11T11:28:23.306Z,98768.66
2023-01-11T11:30:53.447Z,98778.16
2023-01-11T11:33:28.869Z,98767.97
2023-01-11T11:35:55.874Z,98765.53
2023-01-11T11:38:25.514Z,98763.66
2023-01-11T11:41:16.756Z,98775.66
2023-01-11T11:43:45.819Z,98769.91
2023-01-11T11:46:19.348Z,98771.50
2023-01-11T11:49:18.441Z,98777.06
2023-01-11T11:51:47.504Z,98768.09
2023-01-11T11:54:39.408Z,98757.94
2023-01-11T11:57:21.626Z,98756.56
2023-01-11T11:59:50.485Z,98764.88
2023-01-11T12:02:28.642Z,98752.47
2023-01-11T12:04:57.766Z,98742.38
2023-01-11T12:07:28.665Z,98745.34
2023-01-11T12:10:00.441Z,98734.63
2023-01-11T12:12:29.504Z,98730.19
2023-01-11T12:15:19.699Z,98726.31
2023-01-11T12:17:46.998Z,98731.78
2023-01-11T12:20:22.233Z,98729.28
2023-01-11T12:23:13.348Z,98730.84
2023-01-11T12:26:10.578Z,98728.41
2023-01-11T12:29:02.929Z,98722.22
2023-01-11T12:32:03.032Z,98723.91
2023-01-11T12:34:57.297Z,98725.66
2023-01-11T12:37:55.018Z,98733.53
2023-01-11T12:40:53.786Z,98734.59
2023-01-11T12:43:45.226Z,98734.16
2023-01-11T12:46:38.045Z,98728.53
2023-01-11T12:49:30.783Z,98727.66
2023-01-11T12:52:05.503Z,98718.00
2023-01-11T12:54:48.093Z,98725.97
2023-01-11T12:57:55.739Z,98716.84
2023-01-11T13:00:32.538Z,98726.53
2023-01-11T13:03:18.209Z,98724.41
2023-01-11T13:06:01.621Z,98735.13
2023-01-11T13:08:50.925Z,98733.25
2023-01-11T13:11:39.269Z,98727.47
2023-01-11T13:14:17.746Z,98730.94
2023-01-11T13:16:56.103Z,98726.97
2023-01-11T13:19:34.386Z,98734.00
2023-01-11T13:22:01.487Z,98729.78
2023-01-11T13:24:31.193Z,98733.66
2023-01-11T13:27:04.561Z,98733.34
2023-01-11T13:32:32.145Z,98739.66
2023-01-11T13:35:06.318Z,98747.00
2023-01-11T13:37:47.216Z,98740.91
2023-01-11T13:40:27.312Z,98741.88
2023-01-11T13:42:59.404Z,98747.13
2023-01-11T13:45:50.286Z,98748.78
2023-01-11T13:48:28.467Z,98751.31
2023-01-11T13:50:58.597Z,98755.47
2023-01-11T13:53:47.111Z,98762.72
2023-01-11T13:56:21.164Z,98772.94
2023-01-11T13:58:58.448Z,98781.34
2023-01-11T14:01:54.641Z,98785.53
2023-01-11T14:04:27.928Z,98784.81
2023-01-11T14:07:17.749Z,98799.56
2023-01-11T14:10:02.575Z,98781.56
2023-01-11T14:12:59.911Z,98784.19
2023-01-11T14:15:42.138Z,98790.81
2023-01-11T14:18:24.749Z,98788.59
2023-01-11T14:21:29.347Z,98792.28
2023-01-11T14:23:57.096Z,98787.56
2023-01-11T14:26:56.275Z,98777.56
2023-01-11T14:29:57.515Z,98781.13
2023-01-11T14:32:56.136Z,98789.03
2023-01-11T14:35:49.919Z,98791.34
2023-01-11T14:38:42.739Z,98796.38
2023-01-11T14:41:46.967Z,98808.78
2023-01-11T14:44:22.954Z,98815.16
2023-01-11T14:47:11.771Z,98815.47
2023-01-11T14:49:40.994Z,98818.28
2023-01-11T14:52:25.512Z,98817.75
2023-01-11T14:55:05.544Z,98819.06
2023-01-11T14:57:37.808Z,98834.19
2023-01-11T15:00:25.926Z,98837.75
2023-01-11T15:03:01.208Z,98837.34
2023-01-11T15:05:35.895Z,98841.72
2023-01-11T15:08:14.288Z,98839.72
2023-01-11T15:10:52.260Z,98848.78
2023-01-11T15:13:23.684Z,98849.13
2023-01-11T15:15:51.601Z,98854.47
2023-01-11T15:18:22.375Z,98866.59
2023-01-11T15:20:55.390Z,98878.69
2023-01-11T15:23:22.951Z,98878.84
2023-01-11T15:26:00.237Z,98884.28
2023-01-11T15:28:48.561Z,98894.44
2023-01-11T15:31:53.577Z,98901.47
2023-01-11T15:34:41.161Z,98898.69
2023-01-11T15:37:30.487Z,98910.88
2023-01-11T15:40:25.303Z,98903.84
2023-01-11T15:43:21.123Z,98904.16
2023-01-11T15:46:30.844Z,98921.63
2023-01-11T15:49:19.714Z,98925.13
2023-01-11T15:52:00.027Z,98937.59
2023-01-11T15:54:44.251Z,98937.50
2023-01-11T15:57:57.427Z,98935.69
2023-01-11T16:01:03.376Z,98942.31
2023-01-11T16:04:00.370Z,98958.16
2023-01-11T16:06:32.354Z,98961.16
2023-01-11T16:09:22.788Z,98963.13
2023-01-11T16:12:15.260Z,98963.34
2023-01-11T16:15:03.304Z,98974.16
2023-01-11T16:17:29.894Z,98977.38
2023-01-11T16:19:57.416Z,98986.72
2023-01-11T16:22:26.208Z,98991.50
2023-01-11T16:24:57.569Z,98988.16
2023-01-11T16:27:27.600Z,98998.91
2023-01-11T16:29:54.561Z,98992.72
2023-01-11T16:32:28.531Z,98994.41
2023-01-11T16:34:55.276Z,98999.66
2023-01-11T16:37:43.414Z,98993.13
2023-01-11T16:40:18.263Z,98993.13
2023-01-11T16:42:53.909Z,99003.03
2023-01-11T16:45:22.880Z,99002.19
2023-01-11T16:48:07.439Z,99020.44
2023-01-11T16:50:34.938Z,99008.09
2023-01-11T16:53:05.973Z,99002.53
2023-01-11T16:55:36.573Z,99015.31
2023-01-11T16:58:17.273Z,99013.91
2023-01-11T17:00:56.691Z,99016.63
2023-01-11T17:03:35.234Z,99000.03
2023-01-11T17:06:01.581Z,99006.31
2023-01-11T17:08:33.699Z,99008.94
2023-01-11T17:11:05.738Z,99004.81
2023-01-11T17:14:01.182Z,99009.03
2023-01-11T17:16:30.050Z,99028.97
2023-01-11T17:19:00.382Z,99022.81
2023-01-11T17:21:29.991Z,99013.63
2023-01-11T17:24:02.290Z,99028.41
2023-01-11T17:26:44.009Z,99034.50
2023-01-11T17:29:16.977Z,99044.53
2023-01-11T17:31:43.564Z,99048.03
2023-01-11T17:34:17.403Z,99051.44
2023-01-11T17:36:44.921Z,99056.25
2023-01-11T17:39:28.350Z,99053.59
2023-01-11T17:41:56.864Z,99063.56
2023-01-11T17:44:23.813Z,99057.72
2023-01-11T17:46:50.393Z,99066.44
2023-01-11T17:49:24.206Z,99061.72
2023-01-11T17:51:50.626Z,99052.88
2023-01-11T17:54:23.589Z,99064.66
2023-01-11T17:57:00.100Z,99074.28
2023-01-11T17:59:30.182Z,99071.38
2023-01-11T18:02:09.309Z,99085.78
2023-01-11T18:04:35.738Z,99088.88
2023-01-11T18:07:12.592Z,99102.56
2023-01-11T18:09:48.773Z,99100.28
2023-01-11T18:12:21.744Z,99097.66
2023-01-11T18:14:52.572Z,99102.84
2023-01-11T18:17:33.352Z,99114.44
2023-01-11T18:20:01.459Z,99105.50
2023-01-11T18:22:32.308Z,99112.09
2023-01-11T18:25:00.818Z,99115.88
2023-01-11T18:27:34.758Z,99128.22
2023-01-11T18:30:05.529Z,99128.53
2023-01-11T18:32:36.854Z,99125.94
2023-01-11T18:35:06.268Z,99140.22
2023-01-11T18:37:32.633Z,99128.28
2023-01-11T18:39:59.116Z,99131.06
2023-01-11T18:42:29.612Z,99126.38
2023-01-11T18:44:55.974Z,99128.91
2023-01-11T18:47:27.222Z,99144.28
2023-01-11T18:49:54.059Z,99143.50
2023-01-11T18:52:22.996Z,99128.66
2023-01-11T18:54:49.321Z,99140.91
2023-01-11T18:57:15.756Z,99149.44
2023-01-11T18:59:42.151Z,99144.63
2023-01-11T19:02:29.262Z,99153.09
2023-01-11T19:04:56.748Z,99154.75
2023-01-11T19:07:25.126Z,99145.94
2023-01-11T19:09:51.887Z,99153.75
2023-01-11T19:12:18.317Z,99148.44
2023-01-11T19:14:44.684Z,99149.75
2023-01-11T19:17:11.832Z,99157.13
2023-01-11T19:19:38.409Z,99157.13
2023-01-11T19:22:06.047Z,99169.88
2023-01-11T19:24:32.920Z,99164.50
2023-01-11T19:26:59.800Z,99159.09
2023-01-11T19:29:27.001Z,99156.69
2023-01-11T19:31:53.800Z,99162.56
2023-01-11T19:34:20.216Z,99166.91
2023-01-11T19:36:48.040Z,99160.44
2023-01-11T19:39:14.446Z,99164.88
2023-01-11T19:41:40.845Z,99162.69
2023-01-11T19:44:07.273Z,99161.50
2023-01-11T19:46:33.662Z,99160.53
2023-01-11T19:48:59.989Z,99153.56
2023-01-11T19:51:26.350Z,99155.44
2023-01-11T19:53:53.636Z,99157.72
2023-01-11T19:56:20.058Z,99153.56
2023-01-11T19:58:46.462Z,99148.69
2023-01-11T20:01:13.173Z,99149.19
2023-01-11T20:03:40.038Z,99145.63
2023-01-11T20:06:06.906Z,99152.72
2023-01-11T20:08:35.049Z,99145.41
2023-01-11T20:11:11.546Z,99143.41
2023-01-11T20:13:38.577Z,99146.63
2023-01-11T20:16:07.152Z,99137.81
2023-01-11T20:18:34.050Z,99122.63
2023-01-11T20:21:00.555Z,99129.22
2023-01-11T20:23:31.015Z,99125.63
2023-01-11T20:26:01.944Z,99133.72
2023-01-11T20:28:28.740Z,99146.06
2023-01-11T20:30:55.232Z,99145.72
2023-01-11T20:33:22.064Z,99164.38
2023-01-11T20:35:49.151Z,99159.31
2023-01-11T20:38:15.658Z,99161.84
2023-01-11T20:40:42.332Z,99163.72
2023-01-11T20:43:09.800Z,99148.66
2023-01-11T20:45:36.134Z,99149.72
2023-01-11T20:48:02.455Z,99143.59
2023-01-11T20:50:28.874Z,99147.63
2023-01-11T20:52:55.224Z,99138.53
2023-01-11T20:55:21.581Z,99137.34
2023-01-11T20:57:50.445Z,99127.44
2023-01-11T21:00:17.544Z,99129.53
2023-01-11T21:02:43.894Z,99114.53
2023-01-11T21:05:10.595Z,99131.09
2023-01-11T21:07:36.981Z,99129.16
2023-01-11T21:10:03.525Z,99127.19
2023-01-11T21:12:29.901Z,99120.38
2023-01-11T21:14:56.277Z,99119.34
2023-01-11T21:17:22.650Z,99110.94
2023-01-11T21:19:49.008Z,99113.13
2023-01-11T21:22:15.372Z,99102.06
2023-01-11T21:24:41.741Z,99102.63
2023-01-11T21:27:08.277Z,99111.66
2023-01-11T21:29:34.744Z,99113.66
2023-01-11T21:32:01.095Z,99113.44
2023-01-11T21:34:27.425Z,99094.78
2023-01-11T21:36:53.729Z,99080.34
2023-01-11T21:39:20.077Z,99089.09
2023-01-11T21:41:46.433Z,99081.25
2023-01-11T21:44:14.011Z,99086.47
2023-01-11T21:46:41.279Z,99076.41
2023-01-11T21:49:08.351Z,99089.69
2023-01-11T21:51:34.711Z,99083.88
2023-01-11T21:54:04.593Z,99077.91
2023-01-11T21:56:30.963Z,99090.00
2023-01-11T21:58:57.416Z,99090.41
2023-01-11T22:01:23.799Z,99098.91
2023-01-11T22:03:50.247Z,99110.91
2023-01-11T22:06:17.555Z,99103.72
2023-01-11T22:08:45.183Z,99103.94
2023-01-11T22:11:13.983Z,99108.91
2023-01-11T22:13:40.374Z,99119.25
2023-01-11T22:16:09.277Z,99113.63
2023-01-11T22:18:35.910Z,99111.84
2023-01-11T22:21:06.961Z,99100.69
2023-01-11T22:23:33.633Z,99110.66
2023-01-11T22:26:08.379Z,99113.94
2023-01-11T22:28:34.753Z,99102.38
2023-01-11T22:31:05.654Z,99107.78
2023-01-11T22:33:32.084Z,99116.50
2023-01-11T22:35:58.449Z,99116.81
2023-01-11T22:38:24.824Z,99114.25
2023-01-11T22:40:51.128Z,99121.91
2023-01-11T22:43:17.508Z,99132.34
2023-01-11T22:45:43.942Z,99133.91
2023-01-11T22:48:10.412Z,99147.34
2023-01-11T22:50:38.559Z,99133.56
2023-01-11T22:53:05.011Z,99142.41
2023-01-11T22:55:33.483Z,99150.78
2023-01-11T22:57:59.803Z,99146.06
2023-01-11T23:00:26.192Z,99159.41
2023-01-11T23:02:52.624Z,99144.88
2023-01-11T23:05:19.017Z,99142.56
2023-01-11T23:07:45.436Z,99140.16
2023-01-11T23:10:11.789Z,99132.47
2023-01-11T23:12:38.125Z,99123.75
2023-01-11T23:15:04.940Z,99120.56
2023-01-11T23:17:31.291Z,99103.72
2023-01-11T23:19:57.665Z,99112.56
2023-01-11T23:22:24.010Z,99104.97
2023-01-11T23:24:50.393Z,99125.19
2023-01-11T23:27:16.744Z,99118.25
2023-01-11T23:29:43.117Z,99112.41
2023-01-11T23:32:09.762Z,99097.81
2023-01-11T23:34:36.094Z,99101.97
2023-01-11T23:37:02.558Z,99084.41
2023-01-11T23:39:29.004Z,99101.22
2023-01-11T23:41:55.347Z,99097.09
2023-01-11T23:44:22.030Z,99099.25
2023-01-11T23:46:49.727Z,99107.75
2023-01-11T23:49:16.207Z,99096.44
2023-01-11T23:51:43.049Z,99093.53
2023-01-11T23:54:10.313Z,99077.34
2023-01-11T23:56:37.339Z,99081.34
2023-01-11T23:59:04.961Z,99074.69
